Nelson, Canada
Current Conditions -  °F | °C
As of 5:00 PM on Saturday 24 Jan 2015 (Local Time) from CYCG Reporting Station
Overcast Overcast  
Wind Chill: 36°   Ceiling: 5800
Heat Index: 36°   Visibility: 10mi
Dew Point: 36°   Wind: 2mph
Humidity: 100%   Direction: NA
Pressure: 30.29"   Gusts: NA
Location:  49.48°N, 117.28°W
Report Text: CYCG 250100Z VRB02KT 10SM FEW002 FEW018 SCT035 BKN058 OVC070 02/02 A3029 RMK SF1SC1SC2SC4AC1 SF TR SLP275
Loading
Personal Weather Stations






























Interactive Weather Map New forecast layout! Learn more

10-Day Weather Forecast

Advertisements
Track Severe Weather on mobile